OAL334 SGAS-SLPO
Flight info
| Callsign | OAL334 |
|---|---|
| Flight time | 1h 28m |
| Altitude | 36000 |
| Route | SUSRU UM548 EGEXO UM548 BUXOR UM548 DAKRO |
| Aircraft | A20N/M-S/S |
Departure
| Time | 2026-05-04 18:49 |
|---|---|
| Airport | Silvio Pettirossi International Airport (SGAS) |
Arrival
| Time | 2026-05-04 20:18 |
|---|---|
| Airport | Capitan Nicolas Rojas Airport (SLPO) |
| Time | Latitude | Longitude | Altitude | Speed | Heading |
|---|---|---|---|---|---|
| 2026-05-04 18:38 | -25.24096 | -57.51335 | 307 ft | 0 kts | 88° |
| 2026-05-04 18:39 | -25.24096 | -57.51334 | 307 ft | 0 kts | 88° |
| 2026-05-04 18:43 | -25.24096 | -57.51336 | 307 ft | 1 kts | 88° |
| 2026-05-04 18:43 | -25.24096 | -57.51353 | 307 ft | 3 kts | 88° |
| 2026-05-04 18:43 | -25.24097 | -57.51374 | 307 ft | 3 kts | 88° |
| 2026-05-04 18:43 | -25.24097 | -57.51397 | 307 ft | 3 kts | 88° |
| 2026-05-04 18:44 | -25.24097 | -57.51402 | 307 ft | 0 kts | 88° |
| 2026-05-04 18:44 | -25.24095 | -57.51397 | 307 ft | 4 kts | 57° |
| 2026-05-04 18:44 | -25.24029 | -57.51384 | 307 ft | 11 kts | 7° |
| 2026-05-04 18:44 | -25.23987 | -57.51449 | 307 ft | 15 kts | 259° |
| 2026-05-04 18:45 | -25.23933 | -57.51546 | 307 ft | 18 kts | 317° |
| 2026-05-04 18:45 | -25.23813 | -57.51607 | 307 ft | 22 kts | 10° |
| 2026-05-04 18:45 | -25.23659 | -57.51568 | 307 ft | 22 kts | 13° |
| 2026-05-04 18:45 | -25.23510 | -57.51531 | 307 ft | 22 kts | 13° |
| 2026-05-04 18:46 | -25.23365 | -57.51494 | 307 ft | 21 kts | 12° |
| 2026-05-04 18:46 | -25.23224 | -57.51460 | 307 ft | 20 kts | 13° |
| 2026-05-04 18:46 | -25.23088 | -57.51426 | 307 ft | 20 kts | 12° |
| 2026-05-04 18:46 | -25.22957 | -57.51393 | 307 ft | 19 kts | 12° |
| 2026-05-04 18:47 | -25.22831 | -57.51363 | 307 ft | 18 kts | 12° |
| 2026-05-04 18:47 | -25.22712 | -57.51331 | 307 ft | 17 kts | 14° |
| 2026-05-04 18:47 | -25.22596 | -57.51337 | 307 ft | 17 kts | 324° |
| 2026-05-04 18:47 | -25.22547 | -57.51450 | 307 ft | 16 kts | 285° |
| 2026-05-04 18:48 | -25.22538 | -57.51487 | 307 ft | 1 kts | 285° |
| 2026-05-04 18:48 | -25.22532 | -57.51511 | 307 ft | 12 kts | 285° |
| 2026-05-04 18:48 | -25.22552 | -57.51568 | 307 ft | 9 kts | 189° |
| 2026-05-04 18:48 | -25.22578 | -57.51572 | 307 ft | 6 kts | 191° |
| 2026-05-04 18:49 | -25.22809 | -57.51629 | 307 ft | 69 kts | 193° |
| 2026-05-04 18:49 | -25.23492 | -57.51795 | 307 ft | 132 kts | 192° |
| 2026-05-04 18:49 | -25.24564 | -57.52057 | 340 ft | 176 kts | 192° |
| 2026-05-04 18:49 | -25.25734 | -57.52333 | 929 ft | 170 kts | 192° |
| 2026-05-04 18:50 | -25.26903 | -57.52592 | 1503 ft | 173 kts | 192° |
| 2026-05-04 18:50 | -25.28088 | -57.52871 | 1996 ft | 174 kts | 194° |
| 2026-05-04 18:50 | -25.29303 | -57.53176 | 2310 ft | 187 kts | 193° |
| 2026-05-04 18:50 | -25.30625 | -57.53475 | 2666 ft | 200 kts | 192° |
| 2026-05-04 18:51 | -25.32017 | -57.53764 | 3185 ft | 208 kts | 194° |
| 2026-05-04 18:51 | -25.33329 | -57.54552 | 3372 ft | 230 kts | 230° |
| 2026-05-04 18:51 | -25.34081 | -57.56175 | 3446 ft | 253 kts | 264° |
| 2026-05-04 18:51 | -25.33998 | -57.58135 | 4046 ft | 259 kts | 287° |
| 2026-05-04 18:52 | -25.33239 | -57.59928 | 4935 ft | 258 kts | 307° |
| 2026-05-04 18:52 | -25.32166 | -57.61519 | 5983 ft | 259 kts | 310° |
| 2026-05-04 18:52 | -25.31049 | -57.63093 | 6999 ft | 261 kts | 310° |
| 2026-05-04 18:52 | -25.29929 | -57.64685 | 7957 ft | 263 kts | 309° |
| 2026-05-04 18:53 | -25.28809 | -57.66308 | 8861 ft | 267 kts | 308° |
| 2026-05-04 18:53 | -25.27687 | -57.67967 | 9723 ft | 271 kts | 307° |
| 2026-05-04 18:53 | -25.26570 | -57.69650 | 10340 ft | 285 kts | 306° |
| 2026-05-04 18:53 | -25.25447 | -57.71589 | 10545 ft | 311 kts | 300° |
| 2026-05-04 18:54 | -25.24416 | -57.73772 | 11028 ft | 327 kts | 297° |
| 2026-05-04 18:54 | -25.23352 | -57.76052 | 11641 ft | 338 kts | 298° |
| 2026-05-04 18:54 | -25.22193 | -57.78346 | 12300 ft | 347 kts | 300° |
| 2026-05-04 18:54 | -25.20920 | -57.80658 | 12963 ft | 354 kts | 302° |
| 2026-05-04 18:55 | -25.19557 | -57.82960 | 13627 ft | 361 kts | 303° |
| 2026-05-04 18:55 | -25.16606 | -57.87541 | 14894 ft | 374 kts | 306° |
| 2026-05-04 18:55 | -25.15020 | -57.89847 | 15554 ft | 378 kts | 307° |
| 2026-05-04 18:56 | -25.13381 | -57.92135 | 16226 ft | 382 kts | 308° |
| 2026-05-04 18:56 | -25.11687 | -57.94416 | 16896 ft | 385 kts | 308° |
| 2026-05-04 18:56 | -25.09950 | -57.96685 | 17552 ft | 388 kts | 309° |
| 2026-05-04 18:56 | -25.08174 | -57.98947 | 18193 ft | 391 kts | 309° |
| 2026-05-04 18:57 | -25.06383 | -58.01183 | 18806 ft | 394 kts | 310° |
| 2026-05-04 18:57 | -25.04545 | -58.03440 | 19406 ft | 397 kts | 310° |
| 2026-05-04 18:57 | -25.02675 | -58.05703 | 19982 ft | 400 kts | 310° |
| 2026-05-04 18:57 | -25.00775 | -58.07972 | 20533 ft | 404 kts | 310° |
| 2026-05-04 18:58 | -24.98848 | -58.10247 | 21062 ft | 407 kts | 310° |
| 2026-05-04 18:58 | -24.96896 | -58.12525 | 21570 ft | 410 kts | 311° |
| 2026-05-04 18:58 | -24.94916 | -58.14810 | 22062 ft | 413 kts | 311° |
| 2026-05-04 18:58 | -24.92906 | -58.17104 | 22538 ft | 417 kts | 311° |
| 2026-05-04 18:59 | -24.90872 | -58.19400 | 22994 ft | 420 kts | 311° |
| 2026-05-04 18:59 | -24.88834 | -58.21676 | 23430 ft | 423 kts | 311° |
| 2026-05-04 18:59 | -24.86747 | -58.23982 | 23855 ft | 426 kts | 312° |
| 2026-05-04 18:59 | -24.84638 | -58.26288 | 24265 ft | 429 kts | 312° |
| 2026-05-04 19:00 | -24.82496 | -58.28607 | 24666 ft | 432 kts | 312° |
| 2026-05-04 19:00 | -24.80335 | -58.30923 | 25053 ft | 435 kts | 313° |
| 2026-05-04 19:00 | -24.78174 | -58.33213 | 25433 ft | 437 kts | 313° |
| 2026-05-04 19:00 | -24.75972 | -58.35533 | 25813 ft | 439 kts | 313° |
| 2026-05-04 19:01 | -24.73755 | -58.37866 | 26189 ft | 441 kts | 313° |
| 2026-05-04 19:01 | -24.71529 | -58.40204 | 26564 ft | 443 kts | 313° |
| 2026-05-04 19:01 | -24.69296 | -58.42554 | 26938 ft | 444 kts | 313° |
| 2026-05-04 19:01 | -24.67052 | -58.44909 | 27307 ft | 446 kts | 312° |
| 2026-05-04 19:02 | -24.64806 | -58.47265 | 27671 ft | 447 kts | 312° |
| 2026-05-04 19:02 | -24.62551 | -58.49627 | 28029 ft | 448 kts | 312° |
| 2026-05-04 19:02 | -24.60284 | -58.52000 | 28382 ft | 450 kts | 312° |
| 2026-05-04 19:02 | -24.58039 | -58.54349 | 28727 ft | 451 kts | 312° |
| 2026-05-04 19:03 | -24.55759 | -58.56734 | 29071 ft | 452 kts | 312° |
| 2026-05-04 19:03 | -24.53474 | -58.59122 | 29410 ft | 453 kts | 312° |
| 2026-05-04 19:03 | -24.51953 | -58.60711 | 29633 ft | 454 kts | 312° |
| 2026-05-04 19:03 | -24.49656 | -58.63112 | 29972 ft | 455 kts | 311° |
| 2026-05-04 19:04 | -24.46610 | -58.66291 | 30469 ft | 455 kts | 311° |
| 2026-05-04 19:04 | -24.45061 | -58.67905 | 30743 ft | 455 kts | 311° |
| 2026-05-04 19:04 | -24.42772 | -58.70291 | 31162 ft | 453 kts | 311° |
| 2026-05-04 19:04 | -24.40490 | -58.72668 | 31592 ft | 451 kts | 311° |
| 2026-05-04 19:05 | -24.38243 | -58.75008 | 32020 ft | 449 kts | 311° |
| 2026-05-04 19:05 | -24.35977 | -58.77364 | 32440 ft | 447 kts | 311° |
| 2026-05-04 19:05 | -24.33724 | -58.79706 | 32857 ft | 445 kts | 311° |
| 2026-05-04 19:05 | -24.31477 | -58.82040 | 33266 ft | 443 kts | 310° |
| 2026-05-04 19:06 | -24.29243 | -58.84356 | 33655 ft | 441 kts | 310° |
| 2026-05-04 19:06 | -24.27018 | -58.86664 | 34028 ft | 439 kts | 310° |
| 2026-05-04 19:06 | -24.24799 | -58.88964 | 34389 ft | 437 kts | 310° |
| 2026-05-04 19:06 | -24.22593 | -58.91253 | 34706 ft | 437 kts | 310° |
| 2026-05-04 19:07 | -24.20386 | -58.93544 | 34985 ft | 436 kts | 309° |
| 2026-05-04 19:07 | -24.18188 | -58.95839 | 35258 ft | 436 kts | 309° |
| 2026-05-04 19:07 | -24.16032 | -58.98110 | 35535 ft | 435 kts | 309° |
| 2026-05-04 19:07 | -24.13853 | -59.00412 | 35803 ft | 433 kts | 308° |
| 2026-05-04 19:08 | -24.09527 | -59.04988 | 35897 ft | 430 kts | 308° |
| 2026-05-04 19:08 | -24.05251 | -59.09520 | 35904 ft | 429 kts | 308° |
| 2026-05-04 19:09 | -24.00958 | -59.14073 | 35920 ft | 430 kts | 308° |
| 2026-05-04 19:09 | -23.96660 | -59.18621 | 35905 ft | 429 kts | 308° |
| 2026-05-04 19:10 | -23.92368 | -59.23161 | 35904 ft | 429 kts | 308° |
| 2026-05-04 19:10 | -23.88097 | -59.27677 | 35904 ft | 429 kts | 308° |
| 2026-05-04 19:11 | -23.83810 | -59.32205 | 35904 ft | 427 kts | 308° |
| 2026-05-04 19:11 | -23.79562 | -59.36683 | 35904 ft | 427 kts | 308° |
| 2026-05-04 19:12 | -23.73135 | -59.43450 | 35904 ft | 428 kts | 308° |
| 2026-05-04 19:13 | -23.68821 | -59.47989 | 35904 ft | 431 kts | 309° |
| 2026-05-04 19:13 | -23.64524 | -59.52501 | 35904 ft | 431 kts | 309° |
| 2026-05-04 19:14 | -23.60196 | -59.57042 | 35904 ft | 431 kts | 309° |
| 2026-05-04 19:14 | -23.55860 | -59.61585 | 35904 ft | 431 kts | 309° |
| 2026-05-04 19:15 | -23.51530 | -59.66120 | 35904 ft | 431 kts | 309° |
| 2026-05-04 19:15 | -23.47199 | -59.70651 | 35904 ft | 431 kts | 309° |
| 2026-05-04 19:16 | -23.42888 | -59.75157 | 35904 ft | 431 kts | 309° |
| 2026-05-04 19:16 | -23.38561 | -59.79680 | 35904 ft | 430 kts | 309° |
| 2026-05-04 19:17 | -23.34236 | -59.84191 | 35904 ft | 430 kts | 309° |
| 2026-05-04 19:17 | -23.29907 | -59.88700 | 35904 ft | 430 kts | 309° |
| 2026-05-04 19:18 | -23.25579 | -59.93205 | 35904 ft | 430 kts | 309° |
| 2026-05-04 19:18 | -23.21277 | -59.97682 | 35904 ft | 431 kts | 309° |
| 2026-05-04 19:19 | -23.16927 | -60.02205 | 35904 ft | 433 kts | 309° |
| 2026-05-04 19:19 | -23.12563 | -60.06732 | 35904 ft | 433 kts | 309° |
| 2026-05-04 19:20 | -23.08199 | -60.11258 | 35904 ft | 433 kts | 309° |
| 2026-05-04 19:20 | -23.03861 | -60.15752 | 35904 ft | 433 kts | 309° |
| 2026-05-04 19:21 | -22.99498 | -60.20268 | 35904 ft | 433 kts | 309° |
| 2026-05-04 19:21 | -22.95403 | -60.25010 | 35906 ft | 427 kts | 298° |
| 2026-05-04 19:22 | -22.92350 | -60.30502 | 35904 ft | 422 kts | 296° |
| 2026-05-04 19:22 | -22.89287 | -60.35871 | 35904 ft | 421 kts | 296° |
| 2026-05-04 19:23 | -22.86168 | -60.41268 | 35904 ft | 421 kts | 297° |
| 2026-05-04 19:23 | -22.83048 | -60.46652 | 35904 ft | 422 kts | 297° |
| 2026-05-04 19:24 | -22.79925 | -60.52033 | 35904 ft | 422 kts | 297° |
| 2026-05-04 19:24 | -22.76810 | -60.57394 | 35904 ft | 422 kts | 297° |
| 2026-05-04 19:25 | -22.73679 | -60.62779 | 35904 ft | 422 kts | 297° |
| 2026-05-04 19:25 | -22.70542 | -60.68167 | 35904 ft | 423 kts | 297° |
| 2026-05-04 19:26 | -22.67417 | -60.73524 | 35904 ft | 423 kts | 297° |
| 2026-05-04 19:26 | -22.64272 | -60.78908 | 35904 ft | 423 kts | 297° |
| 2026-05-04 19:27 | -22.61125 | -60.84303 | 35904 ft | 422 kts | 297° |
| 2026-05-04 19:27 | -22.57978 | -60.89675 | 35904 ft | 423 kts | 297° |
| 2026-05-04 19:28 | -22.54821 | -60.95061 | 35904 ft | 423 kts | 297° |
| 2026-05-04 19:28 | -22.51663 | -61.00442 | 35904 ft | 423 kts | 297° |
| 2026-05-04 19:29 | -22.48531 | -61.05777 | 35879 ft | 422 kts | 297° |
| 2026-05-04 19:29 | -22.45381 | -61.11137 | 35875 ft | 422 kts | 297° |
| 2026-05-04 19:30 | -22.42226 | -61.16501 | 35875 ft | 423 kts | 297° |
| 2026-05-04 19:30 | -22.39057 | -61.21881 | 35874 ft | 424 kts | 298° |
| 2026-05-04 19:31 | -22.35890 | -61.27258 | 35875 ft | 425 kts | 298° |
| 2026-05-04 19:31 | -22.32718 | -61.32635 | 35875 ft | 424 kts | 298° |
| 2026-05-04 19:32 | -22.29559 | -61.37978 | 35874 ft | 424 kts | 298° |
| 2026-05-04 19:32 | -22.26375 | -61.43360 | 35874 ft | 424 kts | 298° |
| 2026-05-04 19:33 | -22.23200 | -61.48732 | 35874 ft | 424 kts | 298° |
| 2026-05-04 19:33 | -22.20032 | -61.54077 | 35875 ft | 426 kts | 298° |
| 2026-05-04 19:34 | -22.16830 | -61.59472 | 35875 ft | 427 kts | 298° |
| 2026-05-04 19:34 | -22.13623 | -61.64871 | 35875 ft | 427 kts | 298° |
| 2026-05-04 19:35 | -22.10406 | -61.70283 | 35875 ft | 428 kts | 298° |
| 2026-05-04 19:35 | -22.07192 | -61.75684 | 35874 ft | 428 kts | 298° |
| 2026-05-04 19:36 | -22.03997 | -61.81053 | 35874 ft | 427 kts | 299° |
| 2026-05-04 19:36 | -22.00773 | -61.86459 | 35875 ft | 428 kts | 299° |
| 2026-05-04 19:37 | -21.97549 | -61.91860 | 35874 ft | 428 kts | 299° |
| 2026-05-04 19:37 | -21.94328 | -61.97250 | 35874 ft | 428 kts | 299° |
| 2026-05-04 19:38 | -21.91121 | -62.02612 | 35874 ft | 428 kts | 299° |
| 2026-05-04 19:38 | -21.87892 | -62.08007 | 35874 ft | 428 kts | 299° |
| 2026-05-04 19:39 | -21.84669 | -62.13389 | 35906 ft | 426 kts | 299° |
| 2026-05-04 19:39 | -21.81457 | -62.18739 | 35877 ft | 428 kts | 299° |
| 2026-05-04 19:40 | -21.78231 | -62.24110 | 35875 ft | 427 kts | 299° |
| 2026-05-04 19:40 | -21.75004 | -62.29482 | 35874 ft | 426 kts | 299° |
| 2026-05-04 19:41 | -21.71783 | -62.34841 | 35874 ft | 426 kts | 299° |
| 2026-05-04 19:41 | -21.68572 | -62.40171 | 35875 ft | 428 kts | 299° |
| 2026-05-04 19:42 | -21.65335 | -62.45540 | 35874 ft | 428 kts | 299° |
| 2026-05-04 19:42 | -21.62071 | -62.50898 | 35874 ft | 428 kts | 300° |
| 2026-05-04 19:43 | -21.58804 | -62.56254 | 35875 ft | 428 kts | 300° |
| 2026-05-04 19:43 | -21.55561 | -62.61583 | 35875 ft | 428 kts | 300° |
| 2026-05-04 19:44 | -21.52299 | -62.66950 | 35875 ft | 428 kts | 300° |
| 2026-05-04 19:44 | -21.49062 | -62.72279 | 35875 ft | 428 kts | 300° |
| 2026-05-04 19:45 | -21.45800 | -62.77647 | 35874 ft | 427 kts | 300° |
| 2026-05-04 19:45 | -21.42547 | -62.82998 | 35874 ft | 427 kts | 300° |
| 2026-05-04 19:46 | -21.39300 | -62.88339 | 35874 ft | 427 kts | 300° |
| 2026-05-04 19:46 | -21.36062 | -62.93660 | 35874 ft | 427 kts | 300° |
| 2026-05-04 19:47 | -21.32805 | -62.99009 | 35874 ft | 427 kts | 300° |
| 2026-05-04 19:47 | -21.29568 | -63.04365 | 35875 ft | 427 kts | 299° |
| 2026-05-04 19:48 | -21.26388 | -63.09744 | 35874 ft | 427 kts | 298° |
| 2026-05-04 19:48 | -21.23211 | -63.15128 | 35874 ft | 428 kts | 298° |
| 2026-05-04 19:49 | -21.20033 | -63.20514 | 35875 ft | 429 kts | 298° |
| 2026-05-04 19:49 | -21.17371 | -63.25024 | 35875 ft | 430 kts | 298° |
| 2026-05-04 19:50 | -21.13651 | -63.31317 | 35874 ft | 431 kts | 298° |
| 2026-05-04 19:50 | -21.10979 | -63.35835 | 35875 ft | 431 kts | 298° |
| 2026-05-04 19:51 | -21.07763 | -63.41274 | 35875 ft | 431 kts | 298° |
| 2026-05-04 19:51 | -21.04550 | -63.46704 | 35875 ft | 431 kts | 298° |
| 2026-05-04 19:52 | -21.01358 | -63.52093 | 35875 ft | 431 kts | 298° |
| 2026-05-04 19:52 | -20.98146 | -63.57513 | 35875 ft | 431 kts | 298° |
| 2026-05-04 19:53 | -20.94929 | -63.62935 | 35874 ft | 431 kts | 298° |
| 2026-05-04 19:53 | -20.91733 | -63.68315 | 35874 ft | 431 kts | 298° |
| 2026-05-04 19:54 | -20.88518 | -63.73724 | 35829 ft | 430 kts | 298° |
| 2026-05-04 19:54 | -20.85312 | -63.79110 | 35817 ft | 429 kts | 298° |
| 2026-05-04 19:55 | -20.82097 | -63.84508 | 35815 ft | 430 kts | 298° |
| 2026-05-04 19:55 | -20.78895 | -63.89878 | 35815 ft | 430 kts | 298° |
| 2026-05-04 19:56 | -20.75674 | -63.95275 | 35815 ft | 430 kts | 298° |
| 2026-05-04 19:56 | -20.72445 | -64.00681 | 35816 ft | 433 kts | 298° |
| 2026-05-04 19:57 | -20.69199 | -64.06113 | 35815 ft | 434 kts | 298° |
| 2026-05-04 19:57 | -20.65970 | -64.11511 | 35815 ft | 433 kts | 298° |
| 2026-05-04 19:58 | -20.62718 | -64.16938 | 35815 ft | 433 kts | 298° |
| 2026-05-04 19:58 | -20.59463 | -64.22378 | 35815 ft | 433 kts | 298° |
| 2026-05-04 19:59 | -20.56224 | -64.27801 | 35815 ft | 433 kts | 298° |
| 2026-05-04 19:59 | -20.53004 | -64.33205 | 35815 ft | 433 kts | 298° |
| 2026-05-04 20:00 | -20.49776 | -64.38635 | 35815 ft | 433 kts | 298° |
| 2026-05-04 20:00 | -20.46548 | -64.44067 | 35815 ft | 433 kts | 298° |
| 2026-05-04 20:01 | -20.43311 | -64.49514 | 35815 ft | 433 kts | 298° |
| 2026-05-04 20:01 | -20.40104 | -64.54910 | 35815 ft | 433 kts | 298° |
| 2026-05-04 20:02 | -20.36869 | -64.60351 | 35815 ft | 433 kts | 298° |
| 2026-05-04 20:02 | -20.33642 | -64.65776 | 35815 ft | 433 kts | 298° |
| 2026-05-04 20:03 | -20.30416 | -64.71206 | 35815 ft | 433 kts | 298° |
| 2026-05-04 20:03 | -20.27211 | -64.76601 | 35815 ft | 434 kts | 298° |
| 2026-05-04 20:04 | -20.23975 | -64.82046 | 35815 ft | 435 kts | 298° |
| 2026-05-04 20:04 | -20.20728 | -64.87501 | 35566 ft | 436 kts | 298° |
| 2026-05-04 20:04 | -20.19109 | -64.90222 | 35315 ft | 433 kts | 298° |
| 2026-05-04 20:05 | -20.17500 | -64.92931 | 35065 ft | 435 kts | 298° |
| 2026-05-04 20:05 | -20.15880 | -64.95657 | 34814 ft | 436 kts | 298° |
| 2026-05-04 20:05 | -20.14253 | -64.98396 | 34563 ft | 436 kts | 298° |
| 2026-05-04 20:05 | -20.12633 | -65.01130 | 34233 ft | 436 kts | 298° |
| 2026-05-04 20:06 | -20.11040 | -65.03816 | 33660 ft | 433 kts | 298° |
| 2026-05-04 20:06 | -20.09435 | -65.06524 | 33025 ft | 431 kts | 298° |
| 2026-05-04 20:06 | -20.07838 | -65.09217 | 32468 ft | 427 kts | 298° |
| 2026-05-04 20:06 | -20.06256 | -65.11886 | 31871 ft | 425 kts | 298° |
| 2026-05-04 20:07 | -20.04689 | -65.14531 | 31299 ft | 422 kts | 298° |
| 2026-05-04 20:07 | -20.03124 | -65.17178 | 30722 ft | 422 kts | 298° |
| 2026-05-04 20:07 | -20.01564 | -65.19816 | 30236 ft | 421 kts | 298° |
| 2026-05-04 20:07 | -20.00005 | -65.22449 | 29720 ft | 420 kts | 298° |
| 2026-05-04 20:08 | -19.98466 | -65.25046 | 29164 ft | 417 kts | 299° |
| 2026-05-04 20:08 | -19.96921 | -65.27658 | 28551 ft | 417 kts | 299° |
| 2026-05-04 20:08 | -19.95380 | -65.30261 | 27949 ft | 415 kts | 300° |
| 2026-05-04 20:08 | -19.93845 | -65.32845 | 27383 ft | 410 kts | 300° |
| 2026-05-04 20:09 | -19.92332 | -65.35408 | 26841 ft | 405 kts | 301° |
| 2026-05-04 20:09 | -19.90840 | -65.37900 | 26153 ft | 405 kts | 301° |
| 2026-05-04 20:09 | -19.89332 | -65.40415 | 25568 ft | 402 kts | 301° |
| 2026-05-04 20:09 | -19.87837 | -65.42922 | 24942 ft | 399 kts | 301° |
| 2026-05-04 20:10 | -19.86355 | -65.45412 | 24361 ft | 395 kts | 301° |
| 2026-05-04 20:10 | -19.84891 | -65.47870 | 23781 ft | 392 kts | 301° |
| 2026-05-04 20:10 | -19.83448 | -65.50291 | 23196 ft | 391 kts | 301° |
| 2026-05-04 20:10 | -19.81950 | -65.52698 | 22220 ft | 396 kts | 304° |
| 2026-05-04 20:11 | -19.80334 | -65.55093 | 21469 ft | 398 kts | 305° |
| 2026-05-04 20:11 | -19.78716 | -65.57465 | 20879 ft | 394 kts | 305° |
| 2026-05-04 20:11 | -19.77110 | -65.59823 | 20257 ft | 393 kts | 305° |
| 2026-05-04 20:11 | -19.75513 | -65.62170 | 19702 ft | 389 kts | 306° |
| 2026-05-04 20:12 | -19.73961 | -65.64454 | 19591 ft | 373 kts | 306° |
| 2026-05-04 20:12 | -19.72478 | -65.66636 | 19514 ft | 357 kts | 306° |
| 2026-05-04 20:12 | -19.71080 | -65.68694 | 19437 ft | 337 kts | 306° |
| 2026-05-04 20:12 | -19.69733 | -65.70679 | 19250 ft | 320 kts | 306° |
| 2026-05-04 20:13 | -19.68479 | -65.72528 | 19148 ft | 306 kts | 306° |
| 2026-05-04 20:13 | -19.67262 | -65.74324 | 19079 ft | 293 kts | 306° |
| 2026-05-04 20:13 | -19.66086 | -65.76058 | 18761 ft | 286 kts | 306° |
| 2026-05-04 20:13 | -19.64909 | -65.77741 | 18381 ft | 281 kts | 310° |
| 2026-05-04 20:14 | -19.63453 | -65.79039 | 18002 ft | 275 kts | 330° |
| 2026-05-04 20:14 | -19.61645 | -65.79628 | 17515 ft | 274 kts | 356° |
| 2026-05-04 20:14 | -19.59795 | -65.79235 | 17024 ft | 274 kts | 25° |
| 2026-05-04 20:14 | -19.58338 | -65.77951 | 16536 ft | 274 kts | 48° |
| 2026-05-04 20:15 | -19.57150 | -65.76369 | 16115 ft | 273 kts | 54° |
| 2026-05-04 20:15 | -19.56531 | -65.74604 | 16323 ft | 249 kts | 86° |
| 2026-05-04 20:15 | -19.56888 | -65.72804 | 16065 ft | 260 kts | 118° |
| 2026-05-04 20:15 | -19.58206 | -65.71624 | 16072 ft | 247 kts | 161° |
| 2026-05-04 20:16 | -19.59868 | -65.71733 | 15937 ft | 244 kts | 204° |
| 2026-05-04 20:16 | -19.60971 | -65.72968 | 15957 ft | 226 kts | 249° |
| 2026-05-04 20:16 | -19.60915 | -65.74546 | 15596 ft | 218 kts | 293° |
| 2026-05-04 20:16 | -19.59870 | -65.75696 | 14875 ft | 220 kts | 335° |
| 2026-05-04 20:17 | -19.58476 | -65.75871 | 14650 ft | 196 kts | 10° |
| 2026-05-04 20:17 | -19.57183 | -65.75546 | 14215 ft | 188 kts | 17° |
| 2026-05-04 20:17 | -19.56054 | -65.74883 | 13629 ft | 187 kts | 40° |
| 2026-05-04 20:17 | -19.55249 | -65.73787 | 13083 ft | 185 kts | 54° |
| 2026-05-04 20:18 | -19.54578 | -65.72750 | 12928 ft | 133 kts | 54° |
| 2026-05-04 20:18 | -19.54289 | -65.72312 | 12927 ft | 24 kts | 60° |
| 2026-05-04 20:18 | -19.54226 | -65.72214 | 12927 ft | 15 kts | 57° |
| 2026-05-04 20:18 | -19.54172 | -65.72116 | 12927 ft | 15 kts | 92° |
| 2026-05-04 20:19 | -19.54230 | -65.72048 | 12927 ft | 10 kts | 150° |
| 2026-05-04 20:19 | -19.54288 | -65.72021 | 12927 ft | 11 kts | 200° |
| 2026-05-04 20:19 | -19.54301 | -65.72028 | 12927 ft | 0 kts | 236° |